^^
Saratoga-Weather Station Historical Data
Daily Summary for April 28, 2020 Units:  Metric    English   Both
Daily Weekly Monthly Yearly Custom
  High: Low: Average:
Temperature: 7.8 °C 1.8 °C 4.8 °C
Dew Point: 6.5 °C 0.6 °C 3.4 °C
Humidity: 94% 82% 91%
Wind Speed: 46.8km/h 0km/h 0.6km/h
Wind Gust: 46.7km/h - -
Wind- - West
Pressure: 1004.7 hPa 995.3 hPa -
Precipitation: 8.4 mm    
Historical Graphs
 
 
Tabular Data for April 28, 2020
Time Temperature Dew Point Pressure Wind Wind Speed Wind Gust Humidity Rainfall Rate (Hourly) solar
00:04 7.6 °C 6.5 °C 1000.0 hPa WNW 1.4 km/h 8 km/h 93% 0.2 mm 0 W/m2
00:09 7.6 °C 6.5 °C 1000.0 hPa Calm   4.8 km/h 93% 0.2 mm 0 W/m2
00:14 7.7 °C 6.5 °C 1000.0 hPa SSW 6.4 km/h 12.9 km/h 92% 0.2 mm 0 W/m2
00:19 7.7 °C 6.5 °C 1000.0 hPa Calm     92% 0.0 mm 0 W/m2
00:24 7.7 °C 6.5 °C 1000.0 hPa Calm   12.9 km/h 92% 0.0 mm 0 W/m2
00:29 7.7 °C 6.5 °C 1000.0 hPa Calm   3.2 km/h 92% 0.0 mm 0 W/m2
00:34 7.7 °C 6.3 °C 1000.0 hPa Calm   4.8 km/h 91% 0.0 mm 0 W/m2
00:39 7.8 °C 6.4 °C 1000.0 hPa Calm   3.2 km/h 91% 0.0 mm 0 W/m2
00:44 7.8 °C 6.4 °C 1000.0 hPa WSW 13 km/h 19.3 km/h 91% 0.0 mm 0 W/m2
00:49 7.8 °C 6.4 °C 1000.0 hPa Calm   12.9 km/h 91% 0.0 mm 0 W/m2
00:54 7.8 °C 6.4 °C 999.7 hPa Calm   19.3 km/h 91% 0.0 mm 0 W/m2
00:59 7.7 °C 6.3 °C 999.7 hPa Calm   1.6 km/h 91% 0.0 mm 0 W/m2
01:04 7.7 °C 6.3 °C 999.7 hPa WNW 1.4 km/h 4.8 km/h 91% 0.0 mm 0 W/m2
01:09 7.7 °C 6.3 °C 999.7 hPa Calm     91% 0.0 mm 0 W/m2
01:14 7.6 °C 6.2 °C 999.7 hPa Calm     91% 0.0 mm 0 W/m2
01:19 7.5 °C 6.1 °C 999.7 hPa SW 4.7 km/h 14.5 km/h 91% 0.0 mm 0 W/m2
01:24 7.5 °C 6.1 °C 999.7 hPa Calm     91% 0.0 mm 0 W/m2
01:29 7.5 °C 6.1 °C 999.3 hPa Calm   8 km/h 91% 0.0 mm 0 W/m2
01:34 7.4 °C 6 °C 999.3 hPa Calm   14.5 km/h 91% 0.0 mm 0 W/m2
01:39 7.3 °C 5.9 °C 999.3 hPa Calm     91% 0.0 mm 0 W/m2
01:44 7.3 °C 5.9 °C 999.7 hPa Calm   14.5 km/h 91% 0.2 mm 0 W/m2
01:49 7.3 °C 6.1 °C 999.3 hPa Calm     92% 0.5 mm 0 W/m2
01:54 7.2 °C 6 °C 999.3 hPa Calm   8 km/h 92% 0.5 mm 0 W/m2
01:59 7.2 °C 6.1 °C 999.3 hPa Calm     93% 0.5 mm 0 W/m2
02:04 7.2 °C 6.1 °C 999.3 hPa Calm   8 km/h 93% 0.5 mm 0 W/m2
02:09 7.2 °C 6.1 °C 999.3 hPa Calm   3.2 km/h 93% 0.5 mm 0 W/m2
02:14 7.3 °C 6.1 °C 999.7 hPa Calm   14.5 km/h 92% 0.5 mm 0 W/m2
02:19 7.3 °C 6.1 °C 999.3 hPa Calm     92% 0.5 mm 0 W/m2
02:25 7.3 °C 6.1 °C 999.3 hPa Calm     92% 0.5 mm 0 W/m2
02:30 7.3 °C 6.1 °C 999.3 hPa Calm     92% 0.5 mm 0 W/m2
02:35 7.3 °C 6.1 °C 999.7 hPa Calm   17.7 km/h 92% 0.8 mm 0 W/m2
02:40 7.3 °C 5.9 °C 999.7 hPa Calm   6.4 km/h 91% 0.8 mm 0 W/m2
02:45 7.2 °C 5.8 °C 999.7 hPa Calm   1.6 km/h 91% 0.5 mm 0 W/m2
02:50 7.2 °C 5.8 °C 999.3 hPa Calm   12.9 km/h 91% 0.5 mm 0 W/m2
02:55 7.2 °C 6 °C 999.3 hPa NW 3.2 km/h 3.2 km/h 92% 0.2 mm 0 W/m2
03:00 7.1 °C 5.9 °C 999.3 hPa Calm   1.6 km/h 92% 0.2 mm 0 W/m2
03:05 7.1 °C 5.9 °C 999.3 hPa Calm   3.2 km/h 92% 0.2 mm 0 W/m2
03:10 7.1 °C 5.9 °C 999.3 hPa Calm     92% 0.2 mm 0 W/m2
03:15 7.1 °C 5.9 °C 999.0 hPa Calm     92% 0.2 mm 0 W/m2
03:20 7.1 °C 5.9 °C 999.0 hPa Calm     92% 0.2 mm 0 W/m2
03:25 7.1 °C 5.9 °C 999.0 hPa Calm     92% 0.2 mm 0 W/m2
03:30 7.1 °C 5.9 °C 998.6 hPa Calm     92% 0.2 mm 0 W/m2
03:35 7.1 °C 5.9 °C 998.6 hPa Calm     92% 0.0 mm 0 W/m2
03:40 7.1 °C 5.9 °C 998.6 hPa Calm     92% 0.2 mm 0 W/m2
03:45 7.1 °C 6 °C 998.6 hPa Calm   3.2 km/h 93% 0.2 mm 0 W/m2
03:50 7 °C 5.9 °C 998.6 hPa Calm     93% 0.2 mm 0 W/m2
03:55 7 °C 5.9 °C 998.3 hPa Calm   3.2 km/h 93% 0.2 mm 0 W/m2
04:00 7 °C 5.9 °C 998.3 hPa Calm     93% 0.2 mm 0 W/m2
04:05 6.9 °C 5.8 °C 998.3 hPa Calm     93% 0.2 mm 0 W/m2
04:10 6.9 °C 5.8 °C 998.0 hPa Calm     93% 0.2 mm 0 W/m2
04:16 6.9 °C 5.8 °C 998.0 hPa Calm     93% 0.2 mm 0 W/m2
04:21 6.9 °C 5.8 °C 998.0 hPa Calm     93% 0.2 mm 0 W/m2
04:26 6.9 °C 5.8 °C 997.6 hPa Calm     93% 0.2 mm 0 W/m2
04:31 6.9 °C 5.8 °C 997.6 hPa Calm   1.6 km/h 93% 0.2 mm 0 W/m2
04:36 6.9 °C 5.8 °C 997.6 hPa Calm   1.6 km/h 93% 0.2 mm 0 W/m2
04:41 6.9 °C 5.7 °C 997.6 hPa Calm   1.6 km/h 92% 0.0 mm 0 W/m2
04:46 6.9 °C 5.7 °C 997.6 hPa Calm     92% 0.0 mm 0 W/m2
04:51 6.9 °C 5.7 °C 997.3 hPa Calm     92% 0.0 mm 0 W/m2
04:56 6.9 °C 5.7 °C 997.3 hPa Calm     92% 0.0 mm 0 W/m2
05:01 6.9 °C 5.7 °C 997.3 hPa Calm     92% 0.2 mm 0 W/m2
05:06 6.9 °C 5.7 °C 997.3 hPa Calm     92% 0.5 mm 0 W/m2
05:11 6.9 °C 5.7 °C 997.0 hPa Calm     92% 0.5 mm 0 W/m2
05:16 6.9 °C 5.7 °C 997.0 hPa Calm   1.6 km/h 92% 0.5 mm 0 W/m2
05:21 6.8 °C 5.7 °C 997.0 hPa Calm   1.6 km/h 93% 0.5 mm 0 W/m2
05:26 6.8 °C 5.7 °C 996.6 hPa Calm     93% 0.5 mm 0 W/m2
05:31 6.8 °C 5.7 °C 996.6 hPa Calm     93% 0.5 mm 0 W/m2
05:36 6.8 °C 5.7 °C 996.6 hPa Calm   3.2 km/h 93% 0.5 mm 0 W/m2
05:41 6.8 °C 5.7 °C 996.3 hPa Calm     93% 0.5 mm 0 W/m2
05:46 6.8 °C 5.6 °C 996.3 hPa Calm   4.8 km/h 92% 0.5 mm 0 W/m2
05:51 6.9 °C 5.7 °C 995.9 hPa Calm   1.6 km/h 92% 0.5 mm 0 W/m2
05:56 6.9 °C 5.7 °C 995.9 hPa Calm   4.8 km/h 92% 0.5 mm 0 W/m2
06:01 6.9 °C 5.7 °C 995.9 hPa Calm   9.7 km/h 92% 0.5 mm 0 W/m2
06:06 6.8 °C 5.6 °C 995.9 hPa Calm   1.6 km/h 92% 0.2 mm 0 W/m2
06:11 6.8 °C 5.6 °C 995.6 hPa Calm   9.7 km/h 92% 0.2 mm 0 W/m2
06:16 6.8 °C 5.6 °C 995.9 hPa Calm   3.2 km/h 92% 0.2 mm 0 W/m2
06:21 6.8 °C 5.4 °C 995.9 hPa Calm   11.3 km/h 91% 0.2 mm 0 W/m2
06:26 6.8 °C 5.4 °C 995.9 hPa Calm     91% 0.2 mm 0 W/m2
06:31 6.7 °C 5.3 °C 995.6 hPa Calm   6.4 km/h 91% 0.2 mm 0 W/m2
06:36 6.6 °C 5.2 °C 995.6 hPa Calm     91% 0.2 mm 0 W/m2
06:41 6.5 °C 5 °C 995.6 hPa Calm   6.4 km/h 90% 0.2 mm 0 W/m2
06:47 6.4 °C 5 °C 995.3 hPa Calm   1.6 km/h 91% 0.0 mm 0 W/m2
06:52 6.4 °C 5 °C 995.3 hPa Calm   1.6 km/h 91% 0.0 mm 0 W/m2
06:57 6.4 °C 5 °C 995.3 hPa Calm     91% 0.0 mm 0 W/m2
07:02 6.4 °C 5 °C 995.3 hPa Calm   1.6 km/h 91% 0.0 mm 0 W/m2
07:07 6.4 °C 5 °C 995.3 hPa Calm     91% 0.2 mm 0 W/m2
07:12 6.3 °C 5.1 °C 995.6 hPa Calm     92% 0.2 mm 0 W/m2
07:17 6.3 °C 5.1 °C 995.6 hPa Calm   3.2 km/h 92% 0.2 mm 0 W/m2
07:22 6.3 °C 5.1 °C 995.6 hPa Calm   17.7 km/h 92% 0.5 mm 0 W/m2
07:27 6.3 °C 5.1 °C 995.3 hPa Calm   1.6 km/h 92% 0.5 mm 0 W/m2
07:32 6.4 °C 5.2 °C 995.6 hPa Calm   11.3 km/h 92% 0.5 mm 0 W/m2
07:37 6.4 °C 5.2 °C 995.6 hPa Calm     92% 0.5 mm 0 W/m2
07:42 6.4 °C 5.2 °C 995.6 hPa Calm   1.6 km/h 92% 0.5 mm 0 W/m2
07:47 6.4 °C 5 °C 995.6 hPa Calm     91% 0.5 mm 0 W/m2
07:52 6.3 °C 4.8 °C 995.6 hPa Calm   19.3 km/h 90% 0.5 mm 0 W/m2
07:57 6.3 °C 4.8 °C 995.9 hPa Calm     90% 0.5 mm 0 W/m2
08:02 6.2 °C 4.5 °C 995.9 hPa Calm   19.3 km/h 89% 0.5 mm 0 W/m2
08:07 6.1 °C 4.4 °C 995.9 hPa Calm   32.2 km/h 89% 0.2 mm 0 W/m2
08:12 6.2 °C 4.5 °C 995.9 hPa Calm     89% 0.2 mm 0 W/m2
08:17 6.1 °C 4.4 °C 995.9 hPa Calm   6.4 km/h 89% 0.2 mm 0 W/m2
08:22 6.1 °C 4.4 °C 995.9 hPa Calm   6.4 km/h 89% 0.0 mm 0 W/m2
08:27 6.1 °C 4.3 °C 995.9 hPa Calm   22.5 km/h 88% 0.0 mm 5 W/m2
08:32 6.1 °C 4.3 °C 995.9 hPa WNW 4.7 km/h 4.8 km/h 88% 0.0 mm 7 W/m2
08:37 5.9 °C 3.9 °C 995.9 hPa Calm     87% 0.0 mm 7 W/m2
08:42 5.9 °C 3.9 °C 996.3 hPa Calm   25.7 km/h 87% 0.0 mm 9 W/m2
08:47 5.8 °C 3.8 °C 996.3 hPa Calm     87% 0.0 mm 18 W/m2
08:52 5.8 °C 3.8 °C 996.3 hPa Calm   11.3 km/h 87% 0.0 mm 33 W/m2
08:57 5.7 °C 3.7 °C 996.6 hPa Calm     87% 0.0 mm 35 W/m2
09:02 5.7 °C 3.7 °C 997.0 hPa Calm   3.2 km/h 87% 0.0 mm 28 W/m2
09:07 5.7 °C 3.5 °C 997.0 hPa Calm     86% 0.0 mm 42 W/m2
09:12 5.8 °C 3.6 °C 997.3 hPa Calm   20.9 km/h 86% 0.0 mm 47 W/m2
09:17 5.8 °C 3.5 °C 997.0 hPa Calm   25.7 km/h 85% 0.0 mm 40 W/m2
09:22 5.8 °C 3.5 °C 997.3 hPa Calm   30.6 km/h 85% 0.0 mm 67 W/m2
09:27 5.8 °C 3.5 °C 997.3 hPa WNW 1.4 km/h 1.6 km/h 85% 0.0 mm 104 W/m2
09:32 5.8 °C 3.5 °C 997.3 hPa Calm   1.6 km/h 85% 0.0 mm 84 W/m2
09:37 5.8 °C 3.5 °C 997.0 hPa Calm     85% 0.0 mm 30 W/m2
09:42 5.8 °C 3.5 °C 997.3 hPa Calm   32.2 km/h 85% 0.0 mm 19 W/m2
09:47 5.5 °C 3.2 °C 997.6 hPa WSW 1.4 km/h 24.1 km/h 85% 0.2 mm 7 W/m2
09:52 5.1 °C 3.1 °C 998.3 hPa WNW 46.8 km/h 46.7 km/h 87% 0.5 mm 0 W/m2
09:57 3.9 °C 2.1 °C 998.0 hPa Calm     88% 1.3 mm 14 W/m2
10:02 3.7 °C 2.4 °C 998.3 hPa West 20.9 km/h 46.7 km/h 91% 1.3 mm 40 W/m2
10:07 3.8 °C 2.5 °C 998.0 hPa Calm     91% 1.3 mm 19 W/m2
10:12 4 °C 2.7 °C 998.3 hPa Calm   37 km/h 91% 1.3 mm 7 W/m2
10:17 4.1 °C 2.6 °C 998.3 hPa Calm     90% 1.3 mm 16 W/m2
10:23 4.1 °C 2.6 °C 998.6 hPa Calm     90% 1.5 mm 9 W/m2
10:28 4 °C 2.5 °C 998.6 hPa Calm   35.4 km/h 90% 1.5 mm 0 W/m2
10:33 3.7 °C 2.2 °C 998.6 hPa SW 20.9 km/h 20.9 km/h 90% 2.0 mm 21 W/m2
10:38 3.5 °C 2.2 °C 998.6 hPa Calm     91% 2.0 mm 32 W/m2
10:43 3.4 °C 2.1 °C 999.0 hPa Calm   1.6 km/h 91% 1.8 mm 33 W/m2
10:48 3.6 °C 2.3 °C 999.0 hPa Calm   30.6 km/h 91% 1.8 mm 44 W/m2
10:53 3.7 °C 2.4 °C 999.3 hPa Calm   14.5 km/h 91% 1.3 mm 40 W/m2
10:58 3.8 °C 2.3 °C 999.3 hPa Calm     90% 0.8 mm 42 W/m2
11:03 3.8 °C 2.3 °C 999.3 hPa Calm     90% 0.8 mm 95 W/m2
11:08 3.9 °C 2.4 °C 999.3 hPa Calm     90% 0.8 mm 100 W/m2
11:13 4 °C 2.5 °C 999.3 hPa Calm     90% 0.8 mm 134 W/m2
11:18 4.2 °C 2.9 °C 999.3 hPa Calm     91% 0.8 mm 128 W/m2
11:23 4.2 °C 2.9 °C 999.7 hPa Calm   1.6 km/h 91% 0.5 mm 104 W/m2
11:28 4.3 °C 2.8 °C 999.7 hPa Calm     90% 0.5 mm 91 W/m2
11:33 4.4 °C 2.9 °C 999.7 hPa Calm     90% 0.0 mm 118 W/m2
11:38 4.6 °C 3.1 °C 999.3 hPa Calm     90% 0.0 mm 155 W/m2
11:43 4.8 °C 3.3 °C 999.3 hPa Calm     90% 0.0 mm 120 W/m2
11:48 5 °C 3.5 °C 999.3 hPa Calm     90% 0.0 mm 125 W/m2
11:53 5.2 °C 3.5 °C 999.7 hPa Calm   1.6 km/h 89% 0.0 mm 40 W/m2
11:58 5.2 °C 3.4 °C 999.7 hPa Calm     88% 0.0 mm 113 W/m2
12:03 5.1 °C 3.1 °C 999.7 hPa Calm   4.8 km/h 87% 0.2 mm 65 W/m2
12:08 4.9 °C 2.9 °C 999.7 hPa Calm   1.6 km/h 87% 0.2 mm 151 W/m2
12:13 4.6 °C 2.5 °C 999.7 hPa Calm   4.8 km/h 86% 0.2 mm 98 W/m2
12:18 4.4 °C 2.3 °C 1000.0 hPa Calm   1.6 km/h 86% 0.2 mm 76 W/m2
12:23 4.3 °C 2.3 °C 1000.0 hPa Calm     87% 0.2 mm 67 W/m2
12:28 4.2 °C 2.4 °C 1000.3 hPa Calm   1.6 km/h 88% 0.2 mm 47 W/m2
12:33 4.1 °C 2.3 °C 1000.0 hPa Calm     88% 0.2 mm 51 W/m2
12:38 3.9 °C 2.3 °C 1000.3 hPa Calm   1.6 km/h 89% 0.2 mm 72 W/m2
12:43 3.8 °C 2.3 °C 1000.3 hPa Calm     90% 0.2 mm 70 W/m2
12:48 3.8 °C 2.2 °C 1000.3 hPa West 24.1 km/h 32.2 km/h 89% 0.2 mm 53 W/m2
12:53 4 °C 2.4 °C 1000.3 hPa Calm   6.4 km/h 89% 0.2 mm 69 W/m2
12:58 4.1 °C 2.3 °C 1000.7 hPa Calm   32.2 km/h 88% 0.2 mm 65 W/m2
13:03 4.2 °C 2.4 °C 1000.7 hPa Calm     88% 0.0 mm 81 W/m2
13:08 4.3 °C 2.3 °C 1000.7 hPa Calm   12.9 km/h 87% 0.0 mm 104 W/m2
13:13 4.3 °C 2.3 °C 1000.7 hPa Calm     87% 0.0 mm 132 W/m2
13:18 4.3 °C 2.3 °C 1000.7 hPa Calm     87% 0.0 mm 79 W/m2
13:23 4.4 °C 2.4 °C 1000.7 hPa Calm   33.8 km/h 87% 0.0 mm 35 W/m2
13:28 4.2 °C 2.2 °C 1000.7 hPa Calm     87% 0.2 mm 72 W/m2
13:33 4.2 °C 2.5 °C 1001.0 hPa Calm   33.8 km/h 89% 0.2 mm 58 W/m2
13:38 4.2 °C 2.5 °C 1001.0 hPa Calm   1.6 km/h 89% 0.2 mm 39 W/m2
13:43 4 °C 2.4 °C 1001.0 hPa Calm   14.5 km/h 89% 0.2 mm 35 W/m2
13:48 3.8 °C 2.2 °C 1001.0 hPa Calm     89% 0.2 mm 56 W/m2
13:53 3.8 °C 2.3 °C 1001.4 hPa Calm   17.7 km/h 90% 0.2 mm 130 W/m2
13:58 3.9 °C 2.4 °C 1001.4 hPa Calm   17.7 km/h 90% 0.2 mm 121 W/m2
14:03 4.1 °C 2.6 °C 1001.4 hPa Calm   1.6 km/h 90% 0.2 mm 125 W/m2
14:08 4.2 °C 2.9 °C 1001.4 hPa Calm   16.1 km/h 91% 0.2 mm 62 W/m2
14:13 4.2 °C 2.7 °C 1001.4 hPa Calm   1.6 km/h 90% 0.2 mm 44 W/m2
14:18 4.2 °C 2.7 °C 1001.4 hPa Calm   4.8 km/h 90% 0.2 mm 130 W/m2
14:23 4.3 °C 2.8 °C 1001.4 hPa Calm     90% 0.2 mm 105 W/m2
14:28 4.4 °C 2.9 °C 1001.4 hPa Calm     90% 0.0 mm 148 W/m2
14:33 4.5 °C 2.8 °C 1001.4 hPa Calm     89% 0.0 mm 67 W/m2
14:38 4.6 °C 2.9 °C 1001.4 hPa Calm     89% 0.0 mm 79 W/m2
14:43 4.4 °C 2.7 °C 1001.7 hPa Calm     89% 0.2 mm 98 W/m2
14:49 4.3 °C 2.8 °C 1001.4 hPa Calm     90% 0.2 mm 72 W/m2
14:54 4.4 °C 2.9 °C 1001.4 hPa Calm     90% 0.5 mm 107 W/m2
14:59 4.6 °C 3.1 °C 1001.4 hPa Calm     90% 0.5 mm 76 W/m2
15:04 4.8 °C 2.8 °C 1002.0 hPa Calm   32.2 km/h 87% 0.5 mm 176 W/m2
15:09 5.2 °C 2.7 °C 1002.0 hPa Calm     84% 0.5 mm 137 W/m2
15:14 5.3 °C 2.6 °C 1002.0 hPa Calm   30.6 km/h 83% 0.5 mm 65 W/m2
15:19 4.8 °C 2 °C 1002.7 hPa Calm   1.6 km/h 82% 0.5 mm 16 W/m2
15:24 3.2 °C 1.1 °C 1002.7 hPa Calm   37 km/h 86% 0.5 mm 16 W/m2
15:29 2.4 °C 0.8 °C 1003.0 hPa Calm   12.9 km/h 89% 0.5 mm 12 W/m2
15:34 1.9 °C 0.6 °C 1003.0 hPa West 25.9 km/h 37 km/h 91% 0.5 mm 46 W/m2
15:39 1.8 °C 0.6 °C 1003.0 hPa Calm     92% 0.2 mm 51 W/m2
15:44 1.8 °C 0.6 °C 1003.0 hPa Calm   32.2 km/h 92% 0.5 mm 63 W/m2
15:49 1.9 °C 0.9 °C 1003.0 hPa Calm     93% 0.5 mm 42 W/m2
15:54 2 °C 1 °C 1003.0 hPa Calm   11.3 km/h 93% 0.5 mm 11 W/m2
15:59 1.9 °C 0.9 °C 1003.4 hPa Calm     93% 0.5 mm 0 W/m2
16:04 1.8 °C 0.8 °C 1003.0 hPa Calm   22.5 km/h 93% 0.5 mm 5 W/m2
16:09 1.9 °C 0.9 °C 1003.0 hPa Calm   25.7 km/h 93% 0.8 mm 9 W/m2
16:14 2.1 °C 1.1 °C 1003.0 hPa Calm   19.3 km/h 93% 0.8 mm 25 W/m2
16:19 2.2 °C 1 °C 1003.0 hPa Calm   3.2 km/h 92% 1.0 mm 46 W/m2
16:24 2.4 °C 1.2 °C 1003.0 hPa Calm     92% 1.0 mm 63 W/m2
16:29 2.6 °C 1.3 °C 1003.0 hPa Calm   1.6 km/h 91% 1.3 mm 53 W/m2
16:34 2.6 °C 1.1 °C 1003.0 hPa Calm   4.8 km/h 90% 1.3 mm 32 W/m2
16:39 2.7 °C 1.2 °C 1003.0 hPa Calm     90% 1.3 mm 18 W/m2
16:44 2.7 °C 1.2 °C 1003.0 hPa Calm     90% 1.0 mm 16 W/m2
16:49 2.7 °C 1.2 °C 1003.4 hPa Calm     90% 0.8 mm 14 W/m2
16:54 2.7 °C 1.2 °C 1003.4 hPa Calm     90% 0.8 mm 12 W/m2
16:59 2.6 °C 1.1 °C 1003.4 hPa Calm     90% 0.5 mm 12 W/m2
17:04 2.6 °C 1.1 °C 1003.4 hPa Calm     90% 0.5 mm 9 W/m2
17:09 2.6 °C 1.3 °C 1003.4 hPa Calm     91% 0.5 mm 5 W/m2
17:15 2.6 °C 1.3 °C 1003.4 hPa Calm     91% 0.2 mm 5 W/m2
17:20 2.6 °C 1.3 °C 1003.7 hPa Calm     91% 0.2 mm 0 W/m2
17:25 2.6 °C 1.3 °C 1003.4 hPa Calm     91% 0.2 mm 0 W/m2
17:30 2.6 °C 1.3 °C 1003.4 hPa Calm     91% 0.0 mm 0 W/m2
17:35 2.6 °C 1.3 °C 1003.7 hPa Calm     91% 0.0 mm 0 W/m2
17:40 2.6 °C 1.3 °C 1003.7 hPa Calm     91% 0.0 mm 0 W/m2
17:45 2.6 °C 1.3 °C 1003.7 hPa Calm     91% 0.0 mm 0 W/m2
17:50 2.7 °C 1.4 °C 1004.1 hPa Calm     91% 0.0 mm 0 W/m2
17:55 2.8 °C 1.3 °C 1004.1 hPa Calm     90% 0.2 mm 0 W/m2
18:00 2.8 °C 1.3 °C 1004.1 hPa Calm     90% 0.2 mm 0 W/m2
18:05 2.8 °C 1.3 °C 1004.1 hPa Calm     90% 0.2 mm 0 W/m2
18:10 2.8 °C 1.3 °C 1004.4 hPa Calm     90% 0.2 mm 0 W/m2
18:15 2.8 °C 1.2 °C 1004.4 hPa Calm     89% 0.2 mm 0 W/m2
18:20 2.8 °C 1.3 °C 1004.4 hPa Calm     90% 0.2 mm 0 W/m2
18:25 2.8 °C 1.3 °C 1004.4 hPa Calm     90% 0.2 mm 0 W/m2
18:30 2.7 °C 1.2 °C 1004.7 hPa Calm     90% 0.2 mm 0 W/m2
18:35 2.7 °C 1.2 °C 1004.4 hPa Calm     90% 0.2 mm 0 W/m2
18:40 2.7 °C 1.2 °C 1004.4 hPa Calm     90% 0.2 mm 0 W/m2
18:45 2.8 °C 1.3 °C 1004.4 hPa Calm     90% 0.2 mm 0 W/m2
18:50 2.8 °C 1.3 °C 1004.4 hPa Calm     90% 0.2 mm 0 W/m2
18:55 2.8 °C 1.2 °C 1004.7 hPa Calm     89% 0.0 mm 0 W/m2
19:00 2.9 °C 1.3 °C 1004.7 hPa Calm     89% 0.0 mm 0 W/m2
19:05 2.9 °C 1.3 °C 1004.7 hPa Calm     89% 0.0 mm 0 W/m2
19:10 2.8 °C 1.2 °C 1004.7 hPa Calm     89% 0.0 mm 0 W/m2
19:15 2.8 °C 1.2 °C 1004.4 hPa Calm     89% 0.0 mm 0 W/m2
19:20 2.8 °C 1.3 °C 1004.4 hPa Calm     90% 0.0 mm 0 W/m2
19:25 2.8 °C 1.3 °C 1004.4 hPa Calm     90% 0.0 mm 0 W/m2
19:30 2.7 °C 1.2 °C 1004.4 hPa Calm     90% 0.0 mm 0 W/m2
19:35 2.7 °C 1.2 °C 1004.4 hPa Calm     90% 0.0 mm 0 W/m2
19:40 2.7 °C 1.2 °C 1004.1 hPa Calm     90% 0.0 mm 0 W/m2
19:45 2.7 °C 1.2 °C 1004.4 hPa Calm     90% 0.0 mm 0 W/m2
19:50 2.7 °C 1.4 °C 1004.4 hPa Calm     91% 0.0 mm 0 W/m2
19:55 2.7 °C 1.4 °C 1004.4 hPa Calm   4.8 km/h 91% 0.0 mm 0 W/m2
20:00 2.7 °C 1.4 °C 1004.4 hPa Calm     91% 0.0 mm 0 W/m2
20:05 2.8 °C 1.5 °C 1004.4 hPa Calm     91% 0.0 mm 0 W/m2
20:10 2.8 °C 1.3 °C 1004.1 hPa Calm     90% 0.0 mm 0 W/m2
20:15 2.8 °C 1.5 °C 1004.1 hPa Calm     91% 0.0 mm 0 W/m2
20:20 2.9 °C 1.6 °C 1004.1 hPa Calm     91% 0.0 mm 0 W/m2
20:25 3 °C 1.5 °C 1004.1 hPa Calm     90% 0.0 mm 0 W/m2
20:30 2.9 °C 1.4 °C 1003.7 hPa Calm     90% 0.0 mm 0 W/m2
20:35 2.9 °C 1.4 °C 1003.7 hPa Calm     90% 0.0 mm 0 W/m2
20:40 3 °C 1.5 °C 1003.7 hPa Calm     90% 0.0 mm 0 W/m2
20:45 3.1 °C 1.6 °C 1003.7 hPa Calm     90% 0.0 mm 0 W/m2
20:50 3.1 °C 1.6 °C 1003.4 hPa Calm     90% 0.0 mm 0 W/m2
20:55 3.1 °C 1.6 °C 1003.4 hPa Calm     90% 0.0 mm 0 W/m2
21:00 3.2 °C 1.7 °C 1003.4 hPa Calm     90% 0.0 mm 0 W/m2
21:05 3.2 °C 1.7 °C 1003.4 hPa Calm     90% 0.0 mm 0 W/m2
21:10 3.3 °C 1.8 °C 1003.0 hPa Calm     90% 0.0 mm 0 W/m2
21:15 3.4 °C 1.9 °C 1003.0 hPa Calm     90% 0.0 mm 0 W/m2
21:20 3.6 °C 2.1 °C 1003.0 hPa Calm   1.6 km/h 90% 0.2 mm 0 W/m2
21:25 3.7 °C 2.2 °C 1003.0 hPa Calm     90% 0.2 mm 0 W/m2
21:30 3.7 °C 2.2 °C 1002.7 hPa Calm   1.6 km/h 90% 0.2 mm 0 W/m2
21:35 3.7 °C 2.2 °C 1002.7 hPa Calm     90% 0.2 mm 0 W/m2
21:40 3.7 °C 2.2 °C 1002.7 hPa Calm     90% 0.2 mm 0 W/m2
21:45 3.8 °C 2.5 °C 1002.7 hPa Calm     91% 0.2 mm 0 W/m2
21:50 3.8 °C 2.5 °C 1002.7 hPa Calm     91% 0.2 mm 0 W/m2
21:55 3.8 °C 2.5 °C 1002.7 hPa Calm     91% 0.5 mm 0 W/m2
22:00 3.8 °C 2.5 °C 1002.4 hPa Calm     91% 0.5 mm 0 W/m2
22:05 3.7 °C 2.4 °C 1002.7 hPa Calm     91% 0.5 mm 0 W/m2
22:10 3.6 °C 2.3 °C 1002.7 hPa Calm     91% 0.8 mm 0 W/m2
22:16 3.5 °C 2.2 °C 1002.7 hPa Calm     91% 1.0 mm 0 W/m2
22:21 3.2 °C 1.9 °C 1002.4 hPa Calm     91% 1.3 mm 0 W/m2
22:26 3 °C 1.8 °C 1002.4 hPa Calm     92% 1.5 mm 0 W/m2
22:31 2.8 °C 1.6 °C 1002.4 hPa Calm     92% 1.5 mm 0 W/m2
22:36 2.7 °C 1.5 °C 1002.4 hPa Calm   1.6 km/h 92% 1.5 mm 0 W/m2
22:41 2.6 °C 1.6 °C 1002.4 hPa Calm   24.1 km/h 93% 1.5 mm 0 W/m2
22:46 2.6 °C 1.6 °C 1002.4 hPa Calm   1.6 km/h 93% 1.5 mm 0 W/m2
22:51 2.6 °C 1.6 °C 1002.4 hPa Calm   24.1 km/h 93% 1.5 mm 0 W/m2
22:56 2.6 °C 1.6 °C 1002.4 hPa Calm     93% 1.5 mm 0 W/m2
23:01 2.7 °C 1.7 °C 1002.4 hPa Calm     93% 1.5 mm 0 W/m2
23:06 2.7 °C 1.7 °C 1002.4 hPa Calm     93% 1.5 mm 0 W/m2
23:11 2.7 °C 1.7 °C 1002.4 hPa Calm     93% 1.3 mm 0 W/m2
23:16 2.7 °C 1.8 °C 1002.4 hPa Calm     94% 1.0 mm 0 W/m2
23:21 2.8 °C 1.9 °C 1002.4 hPa Calm     94% 0.8 mm 0 W/m2
23:26 2.9 °C 2 °C 1002.7 hPa Calm     94% 0.5 mm 0 W/m2
23:31 2.9 °C 2 °C 1002.7 hPa Calm     94% 0.5 mm 0 W/m2
23:37 3.1 °C 2.2 °C 1002.7 hPa Calm     94% 0.5 mm 0 W/m2
23:42 3.1 °C 2.2 °C 1002.7 hPa Calm     94% 0.5 mm 0 W/m2
23:47 3.1 °C 2.2 °C 1002.7 hPa Calm     94% 0.5 mm 0 W/m2
23:52 3.1 °C 2.2 °C 1003.0 hPa Calm     94% 0.5 mm 0 W/m2
23:57 3.1 °C 2.2 °C 1003.0 hPa Calm     94% 0.2 mm 0 W/m2
Juneau County Weather
Compliments of Weather Underground - 4 mb